Time;durP1;ratioP1;P1;durP2;ratioP2;P2;SDS_P1;SDS_P2;PMS_P1;PMS_P2;Temp;Humidity;BMP_temperature;BMP_pressure;BME280_temperature;BME280_humidity;BME280_pressure;Samples;Min_cycle;Max_cycle;Signal;HPM_P1;HPM_P2
2022/09/16 00:02:04;;;;;;;3.80;1.90;;;;;;;15.35;80.32;97474.07;104602;1274;74227;-25
2022/09/16 00:04:31;;;;;;;3.50;1.90;;;;;;;15.46;79.86;97475.77;104756;1271;75964;-25
2022/09/16 00:06:58;;;;;;;4.00;1.70;;;;;;;15.35;79.20;97470.73;104777;1271;74805;-25
2022/09/16 00:09:25;;;;;;;2.20;1.80;;;;;;;15.14;79.41;97465.42;104757;1272;61854;-25
2022/09/16 00:11:52;;;;;;;5.70;2.30;;;;;;;14.88;79.46;97462.77;104768;1274;62897;-26
2022/09/16 00:14:19;;;;;;;3.90;1.40;;;;;;;14.66;80.44;97462.46;104745;1271;76554;-25
2022/09/16 00:16:46;;;;;;;2.50;1.90;;;;;;;15.06;80.35;97464.75;104777;1271;75046;-25
2022/09/16 00:19:14;;;;;;;3.40;1.70;;;;;;;15.52;78.53;97467.54;104770;1274;73516;-25
2022/09/16 00:21:41;;;;;;;2.50;1.70;;;;;;;15.53;78.20;97473.35;103259;1271;2020242;-25
2022/09/16 00:24:12;;;;;;;3.80;2.30;;;;;;;15.32;78.30;97470.95;104658;1271;61641;-25
2022/09/16 00:26:39;;;;;;;5.00;2.10;;;;;;;15.04;78.81;97468.79;104730;1271;75743;-25
2022/09/16 00:29:06;;;;;;;4.30;2.50;;;;;;;14.74;79.41;97469.47;104704;1274;77319;-25
2022/09/16 00:31:33;;;;;;;1.70;1.40;;;;;;;14.51;80.21;97472.79;105003;1274;75353;-26
2022/09/16 00:34:01;;;;;;;2.10;1.70;;;;;;;14.81;80.72;97477.89;104593;1274;62013;-25
2022/09/16 00:36:29;;;;;;;3.00;1.90;;;;;;;15.21;79.56;97478.41;104770;1271;63353;-24
2022/09/16 00:38:56;;;;;;;3.20;2.30;;;;;;;15.17;79.17;97488.05;104921;1272;76472;-25
2022/09/16 00:41:31;;;;;;;2.90;2.10;;;;;;;14.94;79.51;97490.49;105087;1271;76197;-25
2022/09/16 00:44:00;;;;;;;2.40;2.00;;;;;;;14.61;80.11;97496.39;104764;1274;74114;-25
2022/09/16 00:46:40;;;;;;;2.40;2.00;;;;;;;14.28;81.22;97498.88;104598;1271;62253;-24
2022/09/16 00:49:27;;;;;;;3.10;1.10;;;;;;;14.03;82.96;97501.66;104741;1274;63007;-25
2022/09/16 00:52:00;;;;;;;5.10;1.60;;;;;;;14.56;82.21;97502.08;104854;1271;76652;-25
2022/09/16 00:54:27;;;;;;;;;;;;;;;15.02;80.52;97506.15;104703;1271;77135;-25
2022/09/16 00:56:56;;;;;;;2.00;1.60;;;;;;;14.99;80.06;97509.24;104590;1271;75228;-24
2022/09/16 00:59:29;;;;;;;4.10;1.80;;;;;;;14.81;79.94;97510.11;104677;1274;61720;-24
2022/09/16 01:01:57;;;;;;;2.00;1.80;;;;;;;14.51;80.80;97517.67;104653;1271;61934;-24
2022/09/16 01:04:27;;;;;;;4.30;2.20;;;;;;;14.25;81.71;97515.23;104723;1271;76621;-25
2022/09/16 01:06:54;;;;;;;1.70;1.20;;;;;;;14.08;82.76;97518.34;104918;1271;77115;-24
2022/09/16 01:09:22;;;;;;;2.20;1.30;;;;;;;14.50;82.48;97517.52;104823;1271;74382;-25
2022/09/16 01:11:49;;;;;;;2.30;1.60;;;;;;;14.99;80.49;97515.02;104934;1271;63044;-24
2022/09/16 01:17:11;;;;;;;2.30;2.10;;;;;;;14.81;80.70;97532.45;104617;1274;76769;-24
2022/09/16 01:20:12;;;;;;;2.50;1.90;;;;;;;14.52;81.46;97532.23;104690;1274;76672;-25
2022/09/16 01:22:42;;;;;;;3.00;1.40;;;;;;;14.32;82.20;97530.14;104449;1274;74398;-24
2022/09/16 01:25:40;;;;;;;2.40;1.70;;;;;;;14.83;81.54;97528.63;104692;1271;61697;-24
2022/09/16 01:28:13;;;;;;;2.30;1.90;;;;;;;15.24;79.71;97529.02;104700;1271;61859;-25
2022/09/16 01:30:46;;;;;;;;;;;;;;;15.14;80.11;97530.54;104778;1271;76484;-24
2022/09/16 01:33:19;;;;;;;6.90;2.00;;;;;;;14.88;80.16;97527.08;105073;1271;75784;-24
2022/09/16 01:35:59;;;;;;;2.90;2.00;;;;;;;14.54;80.96;97534.73;104764;1275;75465;-25
2022/09/16 01:39:02;;;;;;;2.70;1.40;;;;;;;14.27;81.71;97544.80;104486;1274;63615;-24
2022/09/16 01:41:36;;;;;;;3.80;1.80;;;;;;;14.63;81.94;97544.87;104528;1274;63383;-25
2022/09/16 01:44:25;;;;;;;2.10;1.90;;;;;;;14.79;81.06;97542.71;104659;1271;75515;-25
2022/09/16 01:47:20;;;;;;;3.30;1.90;;;;;;;14.56;81.74;97535.32;104744;1271;77001;-24
2022/09/16 01:50:06;;;;;;;6.00;2.70;;;;;;;14.36;82.53;97534.49;104971;1271;74344;-24
2022/09/16 01:52:52;;;;;;;2.30;1.50;;;;;;;14.22;82.90;97532.08;104694;1271;62847;-25
2022/09/16 01:55:42;;;;;;;3.10;2.10;;;;;;;14.79;82.08;97538.63;104753;1271;62992;-24
2022/09/16 01:58:10;;;;;;;4.40;2.10;;;;;;;15.21;80.45;97539.80;104741;1272;76969;-24
2022/09/16 02:00:39;;;;;;;4.40;2.40;;;;;;;15.13;80.14;97541.23;104684;1271;76721;-25
2022/09/16 02:03:29;;;;;;;3.30;2.70;;;;;;;14.93;80.31;97539.35;104720;1274;75608;-24
2022/09/16 02:06:05;;;;;;;5.20;2.90;;;;;;;14.67;81.37;97537.59;104739;1271;62277;-25
2022/09/16 02:08:48;;;;;;;6.40;1.90;;;;;;;14.47;82.00;97532.21;104732;1271;62962;-24
2022/09/16 02:11:17;;;;;;;3.10;2.50;;;;;;;14.96;81.57;97528.00;104657;1273;74356;-25
2022/09/16 02:13:54;;;;;;;4.60;3.00;;;;;;;15.40;80.11;97522.92;104654;1272;75915;-24
2022/09/16 02:16:28;;;;;;;3.50;2.90;;;;;;;15.41;79.50;97521.20;104757;1271;74476;-25
2022/09/16 02:19:01;;;;;;;3.70;2.70;;;;;;;15.20;79.45;97531.48;104460;1274;61871;-24
2022/09/16 02:21:28;;;;;;;5.50;3.40;;;;;;;14.93;79.99;97537.06;104600;1271;62796;-24
2022/09/16 02:23:57;;;;;;;2.30;2.00;;;;;;;14.65;80.98;97544.13;104727;1271;76627;-24
2022/09/16 02:26:27;;;;;;;3.50;2.20;;;;;;;14.87;81.62;97549.71;104672;1271;77261;-24
2022/09/16 02:28:54;;;;;;;3.60;2.60;;;;;;;15.24;80.48;97550.77;104814;1271;75979;-25
2022/09/16 02:31:24;;;;;;;4.00;3.10;;;;;;;15.22;80.04;97551.53;104728;1271;62037;-24
2022/09/16 02:33:54;;;;;;;3.80;2.80;;;;;;;15.04;80.69;97549.35;104653;1274;62735;-25
2022/09/16 02:36:22;;;;;;;3.70;3.10;;;;;;;14.85;80.81;97541.64;104764;1271;76567;-24
2022/09/16 02:38:52;;;;;;;5.20;2.20;;;;;;;14.68;81.62;97542.00;104756;1271;77590;-24
2022/09/16 02:41:19;;;;;;;3.50;2.30;;;;;;;15.02;81.10;97540.23;104694;1271;74149;-24
2022/09/16 02:43:46;;;;;;;4.60;2.80;;;;;;;15.37;80.09;97547.08;104789;1272;63271;-25
2022/09/16 02:46:55;;;;;;;3.90;2.80;;;;;;;15.36;79.67;97548.73;104856;1271;62265;-24
2022/09/16 02:49:39;;;;;;;3.60;3.20;;;;;;;15.12;80.35;97549.25;104257;1280;76626;-24
2022/09/16 02:52:12;;;;;;;4.10;3.20;;;;;;;14.87;81.07;97548.30;104259;1280;77020;-25
2022/09/16 02:54:55;;;;;;;3.20;2.00;;;;;;;14.71;81.76;97551.83;104365;1280;75334;-24
2022/09/16 02:57:22;;;;;;;7.70;2.10;;;;;;;15.19;81.40;97554.70;104478;1280;63103;-24
2022/09/16 02:59:49;;;;;;;3.70;3.10;;;;;;;15.62;79.83;97556.73;104461;1280;62928;-25
2022/09/16 03:02:16;;;;;;;3.90;3.20;;;;;;;15.59;79.38;97551.83;104345;1280;75655;-25
2022/09/16 03:04:43;;;;;;;3.60;2.90;;;;;;;15.33;79.49;97550.08;104390;1279;75788;-25
2022/09/16 03:07:10;;;;;;;4.70;3.50;;;;;;;15.10;80.52;97550.94;104292;1277;76104;-24
2022/09/16 03:09:40;;;;;;;6.00;3.90;;;;;;;14.85;81.36;97554.53;104155;1278;61951;-25
2022/09/16 03:12:37;;;;;;;3.60;2.30;;;;;;;14.63;82.48;97556.90;104089;1278;63059;-24
2022/09/16 03:15:07;;;;;;;3.70;2.80;;;;;;;15.18;81.35;97551.79;104236;1278;75662;-24
2022/09/16 03:17:49;;;;;;;4.70;2.80;;;;;;;15.58;80.36;97549.52;104257;1278;76986;-25
2022/09/16 03:20:40;;;;;;;4.10;3.70;;;;;;;15.56;79.51;97553.95;104402;1271;74311;-24
2022/09/16 03:23:25;;;;;;;6.60;4.20;;;;;;;15.34;80.07;97555.48;104735;1271;61758;-25
2022/09/16 03:26:15;;;;;;;4.40;3.80;;;;;;;15.05;80.34;97552.35;104624;1271;61051;-24
2022/09/16 03:29:20;;;;;;;3.30;2.50;;;;;;;14.76;82.10;97553.95;104679;1272;75345;-25
2022/09/16 03:31:58;;;;;;;4.30;3.10;;;;;;;15.32;81.27;97556.80;104805;1272;75964;-24
2022/09/16 03:34:37;;;;;;;3.20;2.80;;;;;;;15.60;79.92;97552.52;104667;1271;74159;-25
2022/09/16 03:37:06;;;;;;;4.90;3.70;;;;;;;15.46;80.00;97555.36;104640;1271;63089;-23
2022/09/16 03:39:34;;;;;;;8.90;4.10;;;;;;;15.18;80.71;97555.63;104798;1271;62950;-23
2022/09/16 03:42:02;;;;;;;6.50;4.30;;;;;;;14.92;81.14;97569.55;104691;1271;76535;-23
2022/09/16 03:44:37;;;;;;;3.50;2.30;;;;;;;14.75;81.87;97572.19;104642;1271;77080;-23
2022/09/16 03:47:07;;;;;;;6.00;2.80;;;;;;;15.24;81.66;97564.58;104735;1272;75553;-24
2022/09/16 03:49:35;;;;;;;5.50;3.00;;;;;;;15.78;80.18;97559.48;104779;1271;62168;-23
2022/09/16 03:52:06;;;;;;;4.30;3.40;;;;;;;15.86;79.45;97561.88;104695;1271;61417;-23
2022/09/16 03:54:34;;;;;;;6.00;3.30;;;;;;;15.70;79.02;97564.25;104784;1271;76389;-23
2022/09/16 03:57:01;;;;;;;4.20;3.20;;;;;;;15.49;79.22;97571.63;104657;1271;74949;-23
2022/09/16 03:59:28;;;;;;;7.60;3.60;;;;;;;15.26;79.48;97564.44;104767;1271;75396;-24
2022/09/16 04:01:56;;;;;;;2.70;2.20;;;;;;;15.06;80.02;97575.30;104793;1274;63389;-23
2022/09/16 04:04:23;;;;;;;3.40;2.60;;;;;;;15.32;80.60;97575.48;104749;1271;62888;-24
2022/09/16 04:06:50;;;;;;;7.40;3.50;;;;;;;15.66;79.73;97574.52;104703;1274;76668;-23
2022/09/16 04:09:18;;;;;;;5.00;3.40;;;;;;;15.67;79.47;97578.36;104643;1274;76039;-23
2022/09/16 04:11:45;;;;;;;6.10;3.80;;;;;;;15.48;79.54;97576.84;104678;1274;75274;-24
2022/09/16 04:14:12;;;;;;;6.20;4.30;;;;;;;15.17;80.36;97582.56;104688;1271;63058;-23
2022/09/16 04:16:39;;;;;;;5.50;2.60;;;;;;;14.96;80.68;97586.04;104714;1271;62235;-23
2022/09/16 04:19:12;;;;;;;4.70;2.70;;;;;;;15.27;81.01;97587.23;104744;1271;75415;-23
2022/09/16 04:21:40;;;;;;;4.90;3.50;;;;;;;15.57;80.21;97583.91;104734;1271;77004;-24
2022/09/16 04:24:07;;;;;;;5.70;3.50;;;;;;;15.48;80.39;97584.77;104666;1271;75395;-23
2022/09/16 04:26:40;;;;;;;4.70;3.40;;;;;;;15.35;80.35;97577.13;104742;1271;62943;-23
2022/09/16 04:29:07;;;;;;;4.80;4.00;;;;;;;15.18;80.88;97576.67;104626;1274;62832;-24
2022/09/16 04:31:34;;;;;;;4.80;2.50;;;;;;;15.01;81.31;97569.66;104964;1271;75604;-23
2022/09/16 04:34:01;;;;;;;4.20;3.20;;;;;;;15.42;81.39;97571.91;104629;1274;77228;-23
2022/09/16 04:36:28;;;;;;;4.10;3.10;;;;;;;15.95;79.49;97581.61;104632;1271;75406;-24
2022/09/16 04:38:55;;;;;;;4.10;3.50;;;;;;;15.99;78.60;97581.80;104669;1274;61720;-23
2022/09/16 04:41:24;;;;;;;5.50;3.80;;;;;;;15.82;78.56;97588.26;104711;1271;63024;-24
2022/09/16 04:43:58;;;;;;;4.20;3.40;;;;;;;15.56;79.07;97588.87;104680;1271;76632;-23
2022/09/16 04:46:26;;;;;;;5.40;3.90;;;;;;;15.25;80.09;97596.73;104590;1271;76973;-23
2022/09/16 04:48:54;;;;;;;2.50;2.10;;;;;;;14.98;81.59;97603.95;104708;1271;74319;-24
2022/09/16 04:51:21;;;;;;;4.60;3.00;;;;;;;15.30;81.68;97605.05;104730;1271;62285;-23
2022/09/16 04:53:48;;;;;;;4.40;3.80;;;;;;;15.66;80.41;97606.48;104779;1271;61754;-24
2022/09/16 04:56:20;;;;;;;4.40;3.60;;;;;;;15.61;80.38;97606.45;104721;1271;76581;-24
2022/09/16 04:58:48;;;;;;;5.40;3.80;;;;;;;15.41;80.97;97612.66;104840;1271;75942;-23
2022/09/16 05:01:17;;;;;;;5.90;4.10;;;;;;;15.16;81.99;97616.39;104738;1271;73185;-23
2022/09/16 05:03:46;;;;;;;2.50;2.30;;;;;;;14.98;82.94;97620.90;104785;1271;64534;-24
2022/09/16 05:06:14;;;;;;;4.50;3.20;;;;;;;15.36;82.53;97624.92;104605;1271;62805;-24
2022/09/16 05:08:47;;;;;;;;;;;;;;;15.80;80.83;97624.80;104700;1271;76695;-24
2022/09/16 05:11:15;;;;;;;5.10;3.50;;;;;;;15.78;80.71;97627.35;104737;1272;76958;-24
2022/09/16 05:13:42;;;;;;;4.60;3.60;;;;;;;15.59;81.15;97623.69;104890;1271;75344;-25
2022/09/16 05:16:14;;;;;;;3.80;3.40;;;;;;;15.41;81.72;97626.83;104829;1271;63189;-24
2022/09/16 05:18:42;;;;;;;2.30;1.90;;;;;;;15.25;82.64;97629.30;104775;1271;61151;-25
2022/09/16 05:21:11;;;;;;;3.30;2.30;;;;;;;15.68;82.02;97631.88;104661;1271;76966;-24
2022/09/16 05:23:39;;;;;;;7.20;3.10;;;;;;;16.11;80.31;97631.23;104631;1271;77001;-24
2022/09/16 05:26:13;;;;;;;3.80;3.00;;;;;;;16.12;80.25;97634.45;104669;1271;74398;-24
2022/09/16 05:28:40;;;;;;;4.00;3.30;;;;;;;15.82;80.92;97641.86;104686;1274;62090;-24
2022/09/16 05:31:17;;;;;;;3.40;3.00;;;;;;;15.63;81.59;97641.91;104737;1271;61696;-24
2022/09/16 05:34:15;;;;;;;2.90;2.50;;;;;;;15.43;82.53;97646.63;104667;1271;76756;-25
2022/09/16 05:36:42;;;;;;;3.10;2.70;;;;;;;15.79;81.19;97637.29;104776;1274;75826;-24
2022/09/16 05:39:14;;;;;;;3.60;3.00;;;;;;;15.95;80.20;97635.70;104771;1271;75733;-24
2022/09/16 05:41:53;;;;;;;4.80;3.70;;;;;;;15.93;80.36;97634.52;104787;1271;61649;-24
2022/09/16 05:44:20;;;;;;;3.50;3.20;;;;;;;15.75;80.71;97636.25;104696;1271;62028;-24
2022/09/16 05:46:47;;;;;;;6.10;2.30;;;;;;;15.53;81.64;97640.73;104743;1271;76612;-24
2022/09/16 05:49:19;;;;;;;3.90;3.20;;;;;;;15.73;80.78;97644.72;104862;1271;76958;-25
2022/09/16 05:51:47;;;;;;;3.40;3.00;;;;;;;16.03;79.43;97644.17;105105;1271;74442;-25
2022/09/16 05:54:17;;;;;;;5.20;3.20;;;;;;;16.14;80.10;97648.70;105006;1271;62200;-25
2022/09/16 05:56:45;;;;;;;5.30;3.50;;;;;;;15.97;79.83;97642.77;104638;1274;62859;-25
2022/09/16 05:59:12;;;;;;;6.00;3.80;;;;;;;15.72;80.43;97645.91;104844;1269;75357;-23
2022/09/16 06:01:39;;;;;;;3.90;2.50;;;;;;;15.59;81.73;97645.56;104928;1270;74955;-24
2022/09/16 06:04:09;;;;;;;5.60;3.30;;;;;;;15.95;80.24;97651.68;104773;1271;75117;-24
2022/09/16 06:06:38;;;;;;;3.50;3.20;;;;;;;16.19;78.27;97639.36;104669;1271;61977;-25
2022/09/16 06:09:13;;;;;;;5.60;3.80;;;;;;;16.20;78.43;97643.44;104948;1271;62983;-24
2022/09/16 06:11:43;;;;;;;4.80;3.80;;;;;;;15.97;79.12;97640.46;105095;1271;72881;-24
2022/09/16 06:14:11;;;;;;;5.10;4.60;;;;;;;15.70;80.68;97641.95;104814;1271;77012;-25
2022/09/16 06:16:38;;;;;;;6.20;2.60;;;;;;;15.59;81.84;97649.76;105126;1271;75382;-24
2022/09/16 06:19:09;;;;;;;6.20;3.20;;;;;;;16.07;81.18;97657.52;105015;1269;61952;-25
2022/09/16 06:21:36;;;;;;;5.50;3.80;;;;;;;16.48;78.40;97656.28;104771;1271;63286;-25
2022/09/16 06:24:07;;;;;;;5.80;3.80;;;;;;;16.35;77.46;97655.17;104854;1271;74158;-25
2022/09/16 06:26:36;;;;;;;4.80;3.90;;;;;;;16.15;77.87;97654.66;104897;1271;75804;-25
2022/09/16 06:29:05;;;;;;;5.80;3.90;;;;;;;16.10;78.51;97656.01;104709;1271;75450;-25
2022/09/16 06:31:32;;;;;;;5.60;3.20;;;;;;;16.12;79.24;97656.02;105103;1270;64890;-26
2022/09/16 06:33:59;;;;;;;3.90;3.10;;;;;;;16.65;76.51;97656.23;104807;1271;61102;-25
2022/09/16 06:36:34;;;;;;;7.20;3.80;;;;;;;17.01;75.33;97655.48;104739;1273;76256;-25
2022/09/16 06:39:02;;;;;;;5.00;3.40;;;;;;;17.08;74.47;97656.18;104613;1274;77253;-25
2022/09/16 06:41:31;;;;;;;8.90;3.90;;;;;;;16.95;74.61;97658.20;104690;1272;75407;-25
2022/09/16 06:43:58;;;;;;;5.60;3.70;;;;;;;16.65;74.83;97664.13;104594;1274;62813;-25
2022/09/16 06:46:26;;;;;;;5.80;4.10;;;;;;;16.63;76.01;97661.98;104745;1270;63220;-25
2022/09/16 06:48:56;;;;;;;5.30;2.50;;;;;;;16.65;75.49;97663.56;104765;1272;76554;-25
2022/09/16 06:51:27;;;;;;;6.40;3.60;;;;;;;17.17;73.35;97663.91;104752;1271;75342;-25
2022/09/16 06:53:59;;;;;;;4.10;3.20;;;;;;;17.53;73.32;97664.19;105083;1271;75070;-25
2022/09/16 06:56:26;;;;;;;7.50;3.60;;;;;;;17.40;73.07;97670.59;104955;1271;61150;-25
2022/09/16 06:58:54;;;;;;;7.50;3.60;;;;;;;17.19;72.86;97676.20;104842;1271;61952;-26
2022/09/16 07:01:23;;;;;;;4.80;3.50;;;;;;;16.88;73.66;97679.75;104706;1271;76508;-25
2022/09/16 07:03:51;;;;;;;5.00;3.40;;;;;;;16.66;74.54;97676.30;104720;1270;75973;-25
2022/09/16 07:06:19;;;;;;;3.90;2.60;;;;;;;16.55;74.44;97675.58;104736;1271;75101;-25
2022/09/16 07:08:47;;;;;;;5.70;2.90;;;;;;;16.89;73.39;97685.05;104943;1271;62871;-25
2022/09/16 07:11:14;;;;;;;4.70;3.70;;;;;;;17.37;73.14;97686.82;104800;1272;62719;-25
2022/09/16 07:13:41;;;;;;;3.90;2.90;;;;;;;17.51;71.87;97687.86;105062;1271;76621;-23
2022/09/16 07:16:11;;;;;;;4.90;3.60;;;;;;;17.50;71.56;97692.84;104754;1274;76743;-26
2022/09/16 07:18:40;;;;;;;7.30;3.70;;;;;;;17.52;72.32;97699.05;105041;1271;73973;-24
2022/09/16 07:21:15;;;;;;;4.90;3.20;;;;;;;17.22;71.91;97696.68;104870;1271;62828;-24
2022/09/16 07:23:42;;;;;;;5.60;3.40;;;;;;;16.80;72.98;97700.89;104981;1271;63220;-24
2022/09/16 07:26:14;;;;;;;6.30;3.60;;;;;;;16.44;73.77;97709.20;104923;1271;75148;-24
2022/09/16 07:28:43;;;;;;;5.70;2.10;;;;;;;16.55;74.64;97710.06;104796;1271;77150;-24
2022/09/16 07:31:12;;;;;;;5.20;3.10;;;;;;;17.10;71.40;97711.85;104850;1271;75815;-24
2022/09/16 07:33:43;;;;;;;7.00;3.30;;;;;;;17.55;69.82;97713.42;104466;1271;63372;-24
2022/09/16 07:36:13;;;;;;;7.00;3.20;;;;;;;17.86;69.04;97716.35;104667;1271;61355;-24
2022/09/16 07:38:40;;;;;;;7.00;3.80;;;;;;;18.02;68.91;97716.55;104696;1271;76850;-24
2022/09/16 07:41:10;;;;;;;6.00;3.40;;;;;;;18.00;68.67;97715.58;104732;1271;77069;-24
2022/09/16 07:43:40;;;;;;;8.20;4.20;;;;;;;17.71;68.39;97718.19;104787;1272;75286;-23
2022/09/16 07:46:09;;;;;;;6.60;3.40;;;;;;;17.51;68.75;97720.46;104734;1271;61142;-23
2022/09/16 07:48:36;;;;;;;9.30;3.80;;;;;;;17.30;68.34;97716.77;104784;1271;63222;-24
2022/09/16 07:51:11;;;;;;;8.30;4.40;;;;;;;17.05;67.99;97720.38;104731;1271;75555;-24
2022/09/16 07:53:38;;;;;;;6.90;3.10;;;;;;;16.86;69.01;97720.46;104917;1271;77334;-23
2022/09/16 07:56:07;;;;;;;5.20;3.00;;;;;;;16.83;69.07;97719.29;104893;1271;75359;-24
2022/09/16 07:58:34;;;;;;;5.30;2.30;;;;;;;16.98;69.72;97719.41;105074;1271;61924;-24
2022/09/16 08:01:02;;;;;;;6.80;2.60;;;;;;;17.51;68.42;97713.86;104814;1274;63106;-31
2022/09/16 08:03:31;;;;;;;9.00;2.70;;;;;;;17.96;66.59;97709.80;104897;1271;76764;-29
2022/09/16 08:06:00;;;;;;;5.00;2.40;;;;;;;18.36;65.21;97705.73;104711;1271;76116;-24
2022/09/16 08:08:28;;;;;;;3.40;2.40;;;;;;;18.44;65.15;97707.93;104638;1271;73939;-24
2022/09/16 08:10:55;;;;;;;3.40;1.70;;;;;;;18.20;63.64;97708.58;104712;1274;62048;-24
2022/09/16 08:13:22;;;;;;;5.90;2.10;;;;;;;18.01;65.00;97706.50;104775;1271;62923;-24
2022/09/16 08:15:49;;;;;;;6.00;2.20;;;;;;;18.09;65.24;97709.81;104741;1274;75232;-25
2022/09/16 08:18:16;;;;;;;5.50;2.20;;;;;;;17.85;64.69;97709.88;104741;1271;76950;-24
2022/09/16 08:20:43;;;;;;;4.40;2.70;;;;;;;17.56;64.90;97710.66;104722;1274;75518;-24
2022/09/16 08:23:11;;;;;;;5.20;2.30;;;;;;;17.47;66.39;97710.63;104830;1274;63092;-24
2022/09/16 08:25:38;;;;;;;5.30;2.50;;;;;;;17.37;66.03;97714.91;104840;1271;62869;-24
2022/09/16 08:28:05;;;;;;;5.90;2.30;;;;;;;17.39;66.19;97709.16;104725;1273;75950;-24
2022/09/16 08:30:32;;;;;;;3.20;2.10;;;;;;;17.41;65.82;97708.31;104663;1271;77110;-24
2022/09/16 08:32:59;;;;;;;5.50;2.60;;;;;;;17.31;65.50;97708.40;104793;1271;75468;-25
2022/09/16 08:35:27;;;;;;;6.10;2.10;;;;;;;17.34;65.68;97709.81;104791;1271;61977;-24
2022/09/16 08:37:55;;;;;;;4.80;2.50;;;;;;;17.45;66.16;97706.21;104811;1271;61779;-24
2022/09/16 08:40:33;;;;;;;2.60;2.00;;;;;;;17.41;66.18;97710.70;104898;1271;75494;-24
2022/09/16 08:43:15;;;;;;;5.80;2.60;;;;;;;17.33;64.54;97709.89;104653;1274;75975;-24
2022/09/16 08:45:54;;;;;;;6.80;2.30;;;;;;;17.28;66.14;97712.52;104822;1271;75197;-24
2022/09/16 08:48:40;;;;;;;3.50;2.30;;;;;;;17.38;65.96;97713.86;104910;1271;61786;-24
2022/09/16 08:51:08;;;;;;;2.50;1.80;;;;;;;17.45;65.63;97714.55;104884;1271;61286;-25
2022/09/16 08:53:49;;;;;;;2.50;1.70;;;;;;;17.30;64.71;97710.90;104837;1274;76629;-24
2022/09/16 08:56:19;;;;;;;2.30;1.90;;;;;;;17.19;66.33;97721.77;104821;1274;76940;-24
2022/09/16 08:58:47;;;;;;;6.40;2.40;;;;;;;17.20;65.28;97717.65;104629;1271;75404;-24
2022/09/16 09:01:19;;;;;;;3.60;2.10;;;;;;;17.43;65.05;97720.21;104655;1271;63097;-24
2022/09/16 09:03:46;;;;;;;4.30;1.90;;;;;;;17.71;62.49;97710.21;104616;1271;62140;-25
2022/09/16 09:06:23;;;;;;;2.90;1.60;;;;;;;17.78;63.81;97720.98;104628;1271;75571;-25
2022/09/16 09:09:15;;;;;;;3.60;1.60;;;;;;;17.84;61.81;97715.38;104789;1271;75790;-25
2022/09/16 09:11:47;;;;;;;4.90;2.00;;;;;;;18.22;61.12;97708.61;104884;1274;74552;-24
2022/09/16 09:14:35;;;;;;;4.80;2.00;;;;;;;18.29;60.89;97709.27;104567;1274;63058;-24
2022/09/16 09:17:29;;;;;;;5.10;1.90;;;;;;;18.24;60.61;97703.92;104891;1271;63096;-25
2022/09/16 09:20:04;;;;;;;;;;;;;;;18.38;60.69;97708.91;105128;1271;76519;-25
2022/09/16 09:22:48;;;;;;;5.00;2.30;;;;;;;18.24;60.79;97713.01;105025;1271;77007;-25
2022/09/16 09:25:27;;;;;;;3.70;1.90;;;;;;;18.66;58.87;97709.16;104888;1271;73679;-25
2022/09/16 09:28:03;;;;;;;4.40;1.90;;;;;;;18.62;58.87;97709.55;104591;1274;62853;-25
2022/09/16 09:30:31;;;;;;;6.50;2.00;;;;;;;18.55;59.65;97714.89;104831;1271;61832;-25
2022/09/16 09:33:35;;;;;;;2.90;1.60;;;;;;;18.40;59.32;97720.80;104770;1271;75926;-23
2022/09/16 09:36:31;;;;;;;3.50;1.90;;;;;;;18.38;58.15;97720.88;104654;1271;77043;-23
2022/09/16 09:39:19;;;;;;;6.00;2.10;;;;;;;18.13;58.40;97720.02;105115;1271;74155;-23
2022/09/16 09:41:51;;;;;;;4.40;1.90;;;;;;;18.27;59.75;97722.16;105076;1271;63135;-23
2022/09/16 09:44:39;;;;;;;3.90;1.90;;;;;;;18.38;59.68;97728.73;105074;1271;61778;-24
2022/09/16 09:47:11;;;;;;;5.60;1.60;;;;;;;18.78;57.12;97722.69;105084;1271;76580;-24
2022/09/16 09:49:45;;;;;;;4.50;2.10;;;;;;;19.14;54.21;97717.61;105130;1271;77438;-24
2022/09/16 09:52:15;;;;;;;4.60;1.80;;;;;;;19.34;55.17;97715.03;104787;1273;73620;-24
2022/09/16 09:54:46;;;;;;;3.10;1.90;;;;;;;19.92;54.04;97712.09;104774;1274;62315;-24
2022/09/16 09:57:36;;;;;;;3.10;2.00;;;;;;;20.05;52.09;97709.73;104745;1271;61732;-24
2022/09/16 10:00:22;;;;;;;6.30;2.00;;;;;;;19.87;50.34;97708.05;104688;1274;75521;-24
2022/09/16 10:02:49;;;;;;;4.90;1.80;;;;;;;19.47;50.88;97714.65;104654;1274;75878;-22
2022/09/16 10:05:21;;;;;;;5.70;1.40;;;;;;;19.19;52.47;97706.89;104751;1271;74064;-25
2022/09/16 10:07:50;;;;;;;4.10;1.90;;;;;;;18.79;54.97;97711.02;104651;1272;63332;-23
2022/09/16 10:10:21;;;;;;;4.10;1.60;;;;;;;18.59;55.91;97711.75;104358;1274;61801;-24
2022/09/16 10:12:49;;;;;;;2.70;1.60;;;;;;;18.15;53.10;97710.77;104762;1271;76614;-24
2022/09/16 10:15:37;;;;;;;3.00;1.90;;;;;;;17.86;53.18;97725.06;104805;1272;76883;-24
2022/09/16 10:18:18;;;;;;;2.70;1.80;;;;;;;17.53;54.18;97717.70;104609;1272;73727;-24
2022/09/16 10:20:45;;;;;;;2.70;1.50;;;;;;;17.40;56.05;97724.91;104574;1274;61138;-24
2022/09/16 10:23:14;;;;;;;2.20;1.30;;;;;;;17.23;54.93;97720.58;104637;1272;62798;-24
2022/09/16 10:25:41;;;;;;;5.30;1.90;;;;;;;17.31;56.10;97722.48;104647;1271;75450;-23
2022/09/16 10:28:21;;;;;;;1.60;1.10;;;;;;;17.20;55.75;97721.94;104774;1271;75890;-24
2022/09/16 10:30:52;;;;;;;4.50;1.20;;;;;;;17.05;56.43;97727.63;104654;1271;74238;-24
2022/09/16 10:33:39;;;;;;;5.00;1.40;;;;;;;16.93;53.99;97725.46;104668;1271;63220;-23
2022/09/16 10:36:16;;;;;;;2.20;1.20;;;;;;;16.81;54.32;97723.29;104787;1271;61914;-23
2022/09/16 10:38:59;;;;;;;2.90;1.30;;;;;;;16.62;55.43;97727.35;104773;1271;76463;-23
2022/09/16 10:41:33;;;;;;;2.20;1.40;;;;;;;16.59;57.53;97735.31;105008;1271;75992;-25
2022/09/16 10:44:11;;;;;;;3.60;1.30;;;;;;;16.64;59.06;97739.08;104703;1271;75683;-24
2022/09/16 10:46:57;;;;;;;2.40;1.60;;;;;;;16.71;59.47;97737.86;104684;1271;61955;-23
2022/09/16 10:50:00;;;;;;;4.40;2.00;;;;;;;16.64;60.47;97738.79;104719;1272;62135;-24
2022/09/16 10:52:29;;;;;;;2.80;1.40;;;;;;;16.78;59.60;97736.66;104663;1271;76826;-23
2022/09/16 10:54:57;;;;;;;3.10;1.40;;;;;;;17.07;59.22;97740.70;104813;1271;77108;-23
2022/09/16 10:57:29;;;;;;;2.20;1.30;;;;;;;17.28;56.88;97734.04;104645;1271;75303;-23
2022/09/16 10:59:56;;;;;;;1.80;1.50;;;;;;;17.46;56.22;97731.44;104627;1271;61824;-24
2022/09/16 11:02:43;;;;;;;3.10;1.40;;;;;;;18.07;55.45;97728.61;104748;1271;61943;-24
2022/09/16 11:05:31;;;;;;;3.50;1.80;;;;;;;18.13;55.47;97728.77;104752;1271;76559;-25
2022/09/16 11:08:30;;;;;;;2.90;1.80;;;;;;;17.81;55.61;97730.73;105137;1271;76774;-24
2022/09/16 11:11:06;;;;;;;3.60;1.90;;;;;;;17.32;55.68;97747.80;105073;1271;75621;-24
2022/09/16 11:14:01;;;;;;;5.60;2.30;;;;;;;16.95;56.84;97747.61;104810;1271;63060;-23
2022/09/16 11:16:48;;;;;;;5.00;1.80;;;;;;;16.66;58.64;97754.42;104653;1271;62042;-23
2022/09/16 11:19:38;;;;;;;3.50;1.70;;;;;;;16.49;59.65;97755.91;104762;1271;76332;-23
2022/09/16 11:22:27;;;;;;;2.20;1.50;;;;;;;16.31;60.60;97761.77;104661;1271;76029;-24
2022/09/16 11:25:04;;;;;;;4.20;1.70;;;;;;;16.32;60.80;97764.96;104746;1271;75264;-23
2022/09/16 11:27:56;;;;;;;1.80;1.50;;;;;;;16.47;60.97;97753.35;104778;1271;61783;-24
2022/09/16 11:30:23;;;;;;;4.40;1.90;;;;;;;16.62;60.92;97760.86;104800;1272;62186;-24
2022/09/16 11:33:09;;;;;;;5.30;1.90;;;;;;;16.94;59.94;97750.23;104727;1271;75789;-23
2022/09/16 11:35:57;;;;;;;1.90;1.50;;;;;;;17.09;60.20;97749.15;104740;1271;75934;-23
2022/09/16 11:38:37;;;;;;;2.90;1.70;;;;;;;17.00;57.34;97749.41;105107;1271;75653;-24
2022/09/16 11:41:33;;;;;;;5.00;1.80;;;;;;;16.91;58.29;97748.64;104737;1270;61892;-24
2022/09/16 11:44:28;;;;;;;5.10;1.70;;;;;;;16.94;57.43;97744.77;104609;1274;61956;-24
2022/09/16 11:47:11;;;;;;;2.50;1.50;;;;;;;17.05;57.80;97748.29;105054;1271;76594;-24
2022/09/16 11:50:02;;;;;;;3.20;1.60;;;;;;;17.12;57.32;97748.80;105071;1271;75810;-24
2022/09/16 11:52:52;;;;;;;2.00;1.50;;;;;;;17.42;56.49;97745.65;104736;1271;73482;-25
2022/09/16 11:55:45;;;;;;;3.40;1.80;;;;;;;17.72;55.16;97747.17;104759;1271;63057;-24
2022/09/16 11:58:34;;;;;;;2.20;1.20;;;;;;;17.93;53.53;97747.17;104920;1274;63313;-25
2022/09/16 12:01:24;;;;;;;2.00;1.40;;;;;;;18.25;53.00;97739.00;105048;1271;76639;-25